createdAt,value
2018-03-26T00:02:48.338Z,1005.30
2018-03-26T00:07:43.225Z,1005.27
2018-03-26T00:12:38.990Z,1005.32
2018-03-26T00:17:39.203Z,1005.37
2018-03-26T00:22:33.908Z,1005.32
2018-03-26T00:27:30.648Z,1005.33
2018-03-26T00:32:25.998Z,1005.30
2018-03-26T00:37:23.106Z,1005.42
2018-03-26T00:42:18.557Z,1005.33
2018-03-26T00:47:14.090Z,1005.39
2018-03-26T00:52:14.984Z,1005.49
2018-03-26T00:57:10.255Z,1005.60
2018-03-26T01:02:06.064Z,1005.61
2018-03-26T01:07:05.656Z,1005.51
2018-03-26T01:12:01.557Z,1005.56
2018-03-26T01:17:00.913Z,1005.58
2018-03-26T01:21:56.454Z,1005.57
2018-03-26T01:26:52.184Z,1005.68
2018-03-26T01:31:48.033Z,1005.70
2018-03-26T01:36:43.882Z,1005.70
2018-03-26T01:41:39.710Z,1005.86
2018-03-26T01:46:39.506Z,1005.85
2018-03-26T01:51:34.436Z,1005.86
2018-03-26T01:56:34.123Z,1005.95
2018-03-26T02:01:32.935Z,1006.01
2018-03-26T02:06:32.564Z,1006.06
2018-03-26T02:11:27.966Z,1006.14
2018-03-26T02:16:28.305Z,1006.17
2018-03-26T02:21:24.894Z,1006.13
2018-03-26T02:26:22.529Z,1006.18
2018-03-26T02:31:21.730Z,1006.16
2018-03-26T02:36:21.209Z,1006.23
2018-03-26T02:41:17.014Z,1006.24
2018-03-26T02:46:16.240Z,1006.32
2018-03-26T02:51:12.106Z,1006.35
2018-03-26T03:01:14.785Z,1006.36
2018-03-26T03:06:10.464Z,1006.36
2018-03-26T03:11:06.885Z,1006.31
2018-03-26T03:16:07.191Z,1006.36
2018-03-26T03:21:02.055Z,1006.44
2018-03-26T03:25:57.493Z,1006.38
2018-03-26T03:30:57.137Z,1006.42
2018-03-26T03:35:51.966Z,1006.43
2018-03-26T03:40:47.737Z,1006.38
2018-03-26T03:45:43.488Z,1006.42
2018-03-26T03:50:43.176Z,1006.49
2018-03-26T03:55:41.985Z,1006.49
2018-03-26T04:00:37.876Z,1006.44
2018-03-26T04:05:33.125Z,1006.49
2018-03-26T04:10:32.731Z,1006.50
2018-03-26T04:15:27.455Z,1006.62
2018-03-26T04:20:23.266Z,1006.57
2018-03-26T04:25:22.890Z,1006.58
2018-03-26T04:30:17.669Z,1006.65
2018-03-26T04:35:18.708Z,1006.69
2018-03-26T04:40:13.714Z,1006.76
2018-03-26T04:45:09.440Z,1006.77
2018-03-26T04:50:06.288Z,1006.72
2018-03-26T04:55:02.844Z,1006.76
2018-03-26T04:59:58.753Z,1006.80
2018-03-26T05:04:54.037Z,1006.80
2018-03-26T05:09:49.680Z,1006.95
2018-03-26T05:14:45.553Z,1006.92
2018-03-26T05:19:45.332Z,1006.99
2018-03-26T05:24:45.336Z,1007.15
2018-03-26T05:29:39.908Z,1007.14
2018-03-26T05:34:40.469Z,1007.22
2018-03-26T05:39:36.353Z,1007.32
2018-03-26T05:44:31.697Z,1007.32
2018-03-26T05:49:27.966Z,1007.42
2018-03-26T05:54:28.692Z,1007.56
2018-03-26T05:59:27.175Z,1007.71
2018-03-26T06:04:25.742Z,1007.70
2018-03-26T06:09:24.491Z,1007.74
2018-03-26T06:14:20.495Z,1007.82
2018-03-26T06:19:15.910Z,1007.94
2018-03-26T06:24:16.569Z,1007.93
2018-03-26T06:29:15.302Z,1007.86
2018-03-26T06:34:10.429Z,1007.97
2018-03-26T06:39:10.112Z,1008.07
2018-03-26T06:44:05.927Z,1008.04
2018-03-26T06:49:05.556Z,1008.13
2018-03-26T06:54:00.432Z,1008.17
2018-03-26T06:59:00.472Z,1008.33
2018-03-26T07:03:59.591Z,1008.32
2018-03-26T07:08:54.912Z,1008.36
2018-03-26T07:13:52.113Z,1008.55
2018-03-26T07:18:47.407Z,1008.53
2018-03-26T07:23:44.505Z,1008.55
2018-03-26T07:28:39.966Z,1008.66
2018-03-26T07:33:37.049Z,1008.69
2018-03-26T07:38:36.804Z,1008.78
2018-03-26T07:43:31.747Z,1008.75
2018-03-26T07:48:28.789Z,1008.76
2018-03-26T07:53:24.643Z,1008.71
2018-03-26T07:58:25.931Z,1008.78
2018-03-26T08:03:25.222Z,1008.75
2018-03-26T08:08:20.422Z,1008.80
2018-03-26T08:13:16.424Z,1008.88
2018-03-26T08:18:12.122Z,1008.99
2018-03-26T08:23:07.966Z,1009.02
2018-03-26T08:28:08.767Z,1009.01
2018-03-26T08:33:07.106Z,1009.05
2018-03-26T08:38:06.686Z,1009.11
2018-03-26T08:43:05.144Z,1009.20
2018-03-26T08:47:59.778Z,1009.24
2018-03-26T08:52:58.985Z,1009.33
2018-03-26T08:57:53.845Z,1009.29
2018-03-26T09:02:53.168Z,1009.23
2018-03-26T09:07:49.054Z,1009.24
2018-03-26T09:12:48.292Z,1009.23
2018-03-26T09:17:43.961Z,1009.32
2018-03-26T09:22:40.968Z,1009.28
2018-03-26T09:27:36.653Z,1009.57
2018-03-26T09:32:36.614Z,1009.56
2018-03-26T09:37:31.534Z,1009.42
2018-03-26T09:42:31.594Z,1009.52
2018-03-26T09:47:31.501Z,1009.58
2018-03-26T09:52:26.483Z,1009.69
2018-03-26T09:57:27.574Z,1009.83
2018-03-26T10:02:23.024Z,1009.59
2018-03-26T10:07:22.970Z,1009.60
2018-03-26T10:12:19.225Z,1009.96
2018-03-26T10:17:19.053Z,1010.17
2018-03-26T10:22:19.713Z,1010.64
2018-03-26T10:27:15.472Z,1011.14
2018-03-26T10:32:15.384Z,1010.30
2018-03-26T10:37:11.186Z,1009.60
2018-03-26T10:42:07.097Z,1009.58
2018-03-26T10:47:06.776Z,1009.58
2018-03-26T10:52:02.396Z,1009.69
2018-03-26T10:57:02.448Z,1009.66
2018-03-26T11:01:58.239Z,1009.61
2018-03-26T11:06:58.171Z,1009.63
2018-03-26T11:11:53.601Z,1009.59
2018-03-26T11:16:49.543Z,1009.61
2018-03-26T11:21:45.910Z,1009.59
2018-03-26T11:26:42.664Z,1009.44
2018-03-26T11:31:44.443Z,1009.49
2018-03-26T11:36:39.472Z,1009.51
2018-03-26T11:41:35.425Z,1009.50
2018-03-26T11:46:35.443Z,1009.49
2018-03-26T11:51:34.992Z,1009.46
2018-03-26T11:56:35.412Z,1009.49
2018-03-26T12:01:34.708Z,1009.60
2018-03-26T12:06:30.377Z,1009.50
2018-03-26T12:11:26.196Z,1009.52
2018-03-26T12:16:21.952Z,1009.51
2018-03-26T12:21:17.900Z,1009.60
2018-03-26T12:26:13.612Z,1009.55
2018-03-26T12:31:13.790Z,1009.59
2018-03-26T12:36:08.103Z,1009.43
2018-03-26T12:41:07.823Z,1009.44
2018-03-26T12:46:06.373Z,1009.37
2018-03-26T12:51:01.297Z,1009.39
2018-03-26T12:55:56.141Z,1009.37
2018-03-26T13:00:51.188Z,1009.42
2018-03-26T13:05:48.259Z,1009.40
2018-03-26T13:10:48.931Z,1009.41
2018-03-26T13:15:43.419Z,1009.47
2018-03-26T13:20:39.535Z,1009.32
2018-03-26T13:25:35.087Z,1009.50
2018-03-26T13:30:31.970Z,1009.45
2018-03-26T13:35:28.471Z,1009.46
2018-03-26T13:40:25.341Z,1009.43
2018-03-26T13:45:25.397Z,1009.45
2018-03-26T13:50:21.473Z,1009.52
2018-03-26T13:55:17.002Z,1009.59
2018-03-26T14:00:17.280Z,1009.59
2018-03-26T14:05:11.946Z,1009.54
2018-03-26T14:10:12.600Z,1009.60
2018-03-26T14:15:11.209Z,1009.48
2018-03-26T14:20:05.865Z,1009.51
2018-03-26T14:25:06.462Z,1009.61
2018-03-26T14:30:02.848Z,1009.70
2018-03-26T14:35:04.287Z,1009.78
2018-03-26T14:40:04.140Z,1009.73
2018-03-26T14:44:59.653Z,1009.63
2018-03-26T14:49:55.156Z,1009.76
2018-03-26T14:54:55.534Z,1009.71
2018-03-26T14:59:54.896Z,1009.65
2018-03-26T15:04:52.930Z,1009.75
2018-03-26T15:09:51.511Z,1009.68
2018-03-26T15:14:50.295Z,1009.66
2018-03-26T15:19:50.129Z,1009.75
2018-03-26T15:24:49.500Z,1009.69
2018-03-26T15:29:47.903Z,1009.75
2018-03-26T15:34:42.816Z,1009.73
2018-03-26T15:39:42.313Z,1009.79
2018-03-26T15:44:37.761Z,1009.90
2018-03-26T15:49:38.446Z,1009.88
2018-03-26T15:54:33.434Z,1009.83
2018-03-26T15:59:28.775Z,1009.85
2018-03-26T16:04:24.392Z,1009.94
2018-03-26T16:09:20.393Z,1009.98
2018-03-26T16:14:15.905Z,1009.95
2018-03-26T16:19:11.446Z,1010.05
2018-03-26T16:24:07.381Z,1010.00
2018-03-26T16:29:03.181Z,1010.02
2018-03-26T16:33:58.876Z,1009.88
2018-03-26T16:38:58.907Z,1009.84
2018-03-26T16:43:53.651Z,1009.78
2018-03-26T16:48:51.772Z,1009.88
2018-03-26T16:53:46.533Z,1009.84
2018-03-26T16:58:42.394Z,1009.79
2018-03-26T17:03:38.142Z,1009.79
2018-03-26T17:08:35.122Z,1009.83
2018-03-26T17:13:34.457Z,1009.88
2018-03-26T17:18:29.679Z,1009.86
2018-03-26T17:23:29.363Z,1009.80
2018-03-26T17:28:24.094Z,1009.82
2018-03-26T17:33:20.780Z,1009.81
2018-03-26T17:38:17.004Z,1009.89
2018-03-26T17:43:12.968Z,1009.90
2018-03-26T17:48:08.405Z,1010.00
2018-03-26T17:53:04.001Z,1009.95
2018-03-26T17:58:01.246Z,1009.97
2018-03-26T18:02:56.704Z,1010.01
2018-03-26T18:07:53.333Z,1010.09
2018-03-26T18:12:49.092Z,1010.14
2018-03-26T18:17:46.147Z,1010.04
2018-03-26T18:22:46.351Z,1010.07
2018-03-26T18:27:40.892Z,1010.11
2018-03-26T18:32:40.485Z,1010.08
2018-03-26T18:37:39.291Z,1010.20
2018-03-26T18:42:37.987Z,1010.05
2018-03-26T18:47:33.222Z,1010.09
2018-03-26T18:52:29.847Z,1010.05
2018-03-26T18:57:25.388Z,1010.14
2018-03-26T19:02:26.410Z,1010.07
2018-03-26T19:07:22.849Z,1010.07
2018-03-26T19:12:19.046Z,1010.04
2018-03-26T19:17:18.241Z,1010.10
2018-03-26T19:22:16.831Z,1010.11
2018-03-26T19:27:16.298Z,1010.10
2018-03-26T19:32:11.135Z,1010.13
2018-03-26T19:37:10.983Z,1010.23
2018-03-26T19:42:05.575Z,1010.11
2018-03-26T19:47:02.364Z,1010.18
2018-03-26T19:51:57.764Z,1010.14
2018-03-26T19:56:53.363Z,1010.19
2018-03-26T20:01:53.224Z,1010.17
2018-03-26T20:06:48.657Z,1010.14
2018-03-26T20:11:44.051Z,1010.19
2018-03-26T20:16:44.691Z,1010.22
2018-03-26T20:21:43.228Z,1010.25
2018-03-26T20:26:41.899Z,1010.29
2018-03-26T20:31:40.522Z,1010.27
2018-03-26T20:36:40.383Z,1010.35
2018-03-26T20:41:36.144Z,1010.24
2018-03-26T20:46:36.394Z,1010.39
2018-03-26T20:51:31.145Z,1010.34
2018-03-26T20:56:31.826Z,1010.17
2018-03-26T21:01:30.481Z,1010.27
2018-03-26T21:06:25.365Z,1010.16
2018-03-26T21:11:20.960Z,1010.25
2018-03-26T21:16:20.372Z,1010.22
2018-03-26T21:21:16.065Z,1010.19
2018-03-26T21:26:15.434Z,1010.26
2018-03-26T21:31:10.704Z,1010.25
2018-03-26T21:36:07.434Z,1010.23
2018-03-26T21:41:02.907Z,1010.32
2018-03-26T21:46:03.825Z,1010.26
2018-03-26T21:51:02.349Z,1010.19
2018-03-26T21:56:01.153Z,1010.14
2018-03-26T22:00:59.788Z,1010.15
2018-03-26T22:05:58.526Z,1010.11
2018-03-26T22:10:54.006Z,1010.09
2018-03-26T22:15:49.227Z,1010.05
2018-03-26T22:20:44.967Z,1010.01
2018-03-26T22:25:41.786Z,1010.01
2018-03-26T22:30:40.932Z,1010.00
2018-03-26T22:35:35.599Z,1009.94
2018-03-26T22:40:31.081Z,1009.91
2018-03-26T22:45:30.749Z,1009.90
2018-03-26T22:50:25.706Z,1009.89
2018-03-26T22:55:21.225Z,1009.94
2018-03-26T23:00:21.326Z,1009.95
2018-03-26T23:05:20.111Z,1009.97
2018-03-26T23:10:14.741Z,1010.12
2018-03-26T23:15:10.935Z,1009.98
2018-03-26T23:20:06.473Z,1009.97
2018-03-26T23:25:02.110Z,1009.91
2018-03-26T23:29:58.968Z,1009.84
2018-03-26T23:34:54.368Z,1009.85
2018-03-26T23:39:51.167Z,1009.87
2018-03-26T23:44:47.669Z,1009.79
2018-03-26T23:49:43.147Z,1009.77
2018-03-26T23:54:42.802Z,1009.77
2018-03-26T23:59:41.819Z,1009.74
